Time;durP1;ratioP1;P1;durP2;ratioP2;P2;SDS_P1;SDS_P2;PMS_P1;PMS_P2;Temp;Humidity;BMP_temperature;BMP_pressure;BME280_temperature;BME280_humidity;BME280_pressure;Samples;Min_cycle;Max_cycle;Signal;HPM_P1;HPM_P2
2023/06/08 00:01:02;;;;;;;84.13;79.90;;;;;;;;;;5031643;28;20047;-63
2023/06/08 00:03:27;;;;;;;78.45;74.53;;;;;;;;;;5034226;28;20437;-63
2023/06/08 00:05:53;;;;;;;69.35;65.80;;;;;;;;;;5033382;28;20041;-63
2023/06/08 00:08:18;;;;;;;72.28;68.18;;;;;;;;;;5033332;28;20537;-63
2023/06/08 00:10:45;;;;;;;66.10;62.78;;;;;;;;;;5035208;28;20041;-62
2023/06/08 00:13:10;;;;;;;58.42;55.45;;;;;;;;;;5031704;28;20045;-63
2023/06/08 00:15:36;;;;;;;55.70;52.72;;;;;;;;;;5032184;28;20037;-59
2023/06/08 00:18:02;;;;;;;46.95;44.55;;;;;;;;;;5033040;28;20041;-60
2023/06/08 00:20:28;;;;;;;43.58;41.22;;;;;;;;;;5034472;28;20206;-65
2023/06/08 00:22:54;;;;;;;48.47;45.90;;;;;;;;;;5033436;28;20029;-65
2023/06/08 00:25:20;;;;;;;46.38;43.95;;;;;;;;;;5032353;28;20048;-65
2023/06/08 00:27:45;;;;;;;46.60;44.20;;;;;;;;;;5033450;28;20041;-65
2023/06/08 00:30:13;;;;;;;45.67;43.33;;;;;;;;;;5032755;28;20039;-65
2023/06/08 00:32:39;;;;;;;46.88;44.42;;;;;;;;;;5034111;28;20041;-59
2023/06/08 00:35:06;;;;;;;47.20;44.70;;;;;;;;;;5032506;28;20485;-59
2023/06/08 00:37:31;;;;;;;44.78;42.47;;;;;;;;;;5033038;28;20113;-59
2023/06/08 00:39:56;;;;;;;49.70;47.15;;;;;;;;;;5032514;28;20086;-59
2023/06/08 00:42:22;;;;;;;46.70;44.30;;;;;;;;;;5037572;28;20047;-59
2023/06/08 00:44:47;;;;;;;43.13;40.88;;;;;;;;;;5036346;28;20041;-64
2023/06/08 00:47:13;;;;;;;45.65;43.30;;;;;;;;;;5035851;28;20045;-59
2023/06/08 00:49:38;;;;;;;47.00;44.60;;;;;;;;;;5035791;28;20037;-64
2023/06/08 00:52:06;;;;;;;44.58;42.30;;;;;;;;;;5038712;28;20131;-64
2023/06/08 00:54:32;;;;;;;45.92;43.35;;;;;;;;;;5035251;28;20522;-59
2023/06/08 00:57:00;;;;;;;45.47;43.15;;;;;;;;;;5038540;28;20036;-59
2023/06/08 00:59:30;;;;;;;46.67;44.28;;;;;;;;;;5035241;28;20470;-63
2023/06/08 01:01:57;;;;;;;46.60;44.25;;;;;;;;;;5043715;28;20546;-63
2023/06/08 01:04:23;;;;;;;48.92;46.42;;;;;;;;;;5035280;28;20041;-64
2023/06/08 01:06:54;;;;;;;50.85;48.25;;;;;;;;;;5038797;28;20124;-59
2023/06/08 01:09:48;;;;;;;42.83;40.58;;;;;;;;;;5039520;28;20034;-63
2023/06/08 01:12:25;;;;;;;44.45;42.15;;;;;;;;;;5037209;28;20432;-58
2023/06/08 01:15:09;;;;;;;44.03;41.78;;;;;;;;;;5038611;28;20057;-59
2023/06/08 01:17:40;;;;;;;42.97;40.72;;;;;;;;;;5036340;28;20036;-58
2023/06/08 01:20:21;;;;;;;;;;;;;;;;;;5037556;28;20072;-58
2023/06/08 01:23:07;;;;;;;30.23;28.58;;;;;;;;;;5036055;28;19921;-58
2023/06/08 01:25:35;;;;;;;36.92;34.90;;;;;;;;;;5045631;28;20466;-59
2023/06/08 01:28:15;;;;;;;40.40;38.28;;;;;;;;;;5035572;28;20033;-58
2023/06/08 01:30:45;;;;;;;36.65;34.72;;;;;;;;;;5039479;28;20051;-64
2023/06/08 01:33:17;;;;;;;38.72;36.72;;;;;;;;;;5034111;28;20033;-64
2023/06/08 01:35:46;;;;;;;37.60;35.60;;;;;;;;;;5036820;28;20048;-63
2023/06/08 01:38:23;;;;;;;40.58;38.20;;;;;;;;;;5038551;28;20574;-63
2023/06/08 01:40:52;;;;;;;37.58;35.65;;;;;;;;;;5032913;28;20084;-58
2023/06/08 01:43:19;;;;;;;37.70;35.72;;;;;;;;;;5037737;28;20041;-58
2023/06/08 01:45:47;;;;;;;40.47;38.38;;;;;;;;;;5038372;28;20048;-58
2023/06/08 01:48:13;;;;;;;37.15;35.17;;;;;;;;;;5036419;28;20036;-57
2023/06/08 01:50:39;;;;;;;37.65;35.38;;;;;;;;;;5034178;28;20037;-63
2023/06/08 01:53:06;;;;;;;38.05;36.10;;;;;;;;;;5036940;28;20022;-62
2023/06/08 01:55:31;;;;;;;36.63;34.67;;;;;;;;;;5036245;28;20535;-62
2023/06/08 01:57:57;;;;;;;37.97;36.03;;;;;;;;;;5038266;28;20037;-63
2023/06/08 02:00:24;;;;;;;29.75;28.15;;;;;;;;;;5036573;28;20037;-58
2023/06/08 02:02:49;;;;;;;31.05;29.27;;;;;;;;;;5036200;28;20055;-63
2023/06/08 02:05:15;;;;;;;33.78;32.00;;;;;;;;;;5034600;28;20398;-63
2023/06/08 02:07:42;;;;;;;38.08;36.03;;;;;;;;;;5035575;28;20060;-63
2023/06/08 02:10:09;;;;;;;38.22;36.22;;;;;;;;;;5036849;28;20029;-64
2023/06/08 02:12:35;;;;;;;35.85;33.97;;;;;;;;;;5036728;28;20039;-64
2023/06/08 02:15:01;;;;;;;38.22;35.63;;;;;;;;;;5038113;28;20033;-64
2023/06/08 02:17:27;;;;;;;37.90;35.92;;;;;;;;;;5036216;28;20072;-58
2023/06/08 02:19:56;;;;;;;41.67;39.38;;;;;;;;;;5036912;28;20736;-58
2023/06/08 02:22:22;;;;;;;40.80;38.65;;;;;;;;;;5036023;28;20061;-63
2023/06/08 02:24:49;;;;;;;38.75;36.45;;;;;;;;;;5033371;28;20045;-64
2023/06/08 02:27:15;;;;;;;36.20;34.28;;;;;;;;;;5036706;28;20089;-64
2023/06/08 02:29:41;;;;;;;34.67;32.72;;;;;;;;;;5037377;28;20037;-64
2023/06/08 02:32:07;;;;;;;35.65;33.75;;;;;;;;;;5038698;28;20072;-64
2023/06/08 02:34:35;;;;;;;39.28;37.25;;;;;;;;;;5033915;28;20443;-63
2023/06/08 02:37:01;;;;;;;43.08;40.88;;;;;;;;;;5038733;28;20528;-64
2023/06/08 02:39:26;;;;;;;39.50;37.47;;;;;;;;;;5035954;28;20038;-64
2023/06/08 02:41:51;;;;;;;40.47;38.38;;;;;;;;;;5037286;28;20344;-63
2023/06/08 02:44:17;;;;;;;37.53;35.58;;;;;;;;;;5036677;28;20187;-58
2023/06/08 02:46:42;;;;;;;40.33;38.17;;;;;;;;;;5036690;28;20099;-58
2023/06/08 02:49:07;;;;;;;40.58;38.47;;;;;;;;;;5041419;28;20063;-62
2023/06/08 02:51:34;;;;;;;42.75;40.53;;;;;;;;;;5034913;28;20052;-63
2023/06/08 02:53:59;;;;;;;46.03;43.60;;;;;;;;;;5035121;28;20048;-64
2023/06/08 02:56:25;;;;;;;42.78;40.47;;;;;;;;;;5035645;28;20033;-63
2023/06/08 02:58:51;;;;;;;45.72;43.10;;;;;;;;;;5033279;28;20033;-58
2023/06/08 03:01:17;;;;;;;40.75;38.63;;;;;;;;;;5033290;28;20098;-58
2023/06/08 03:03:44;;;;;;;41.80;39.65;;;;;;;;;;5037204;28;20182;-62
2023/06/08 03:06:12;;;;;;;39.60;37.45;;;;;;;;;;5035241;28;20458;-62
2023/06/08 03:08:38;;;;;;;41.55;39.40;;;;;;;;;;5034543;28;20504;-63
2023/06/08 03:11:04;;;;;;;49.95;47.38;;;;;;;;;;5034267;28;20459;-64
2023/06/08 03:13:29;;;;;;;42.90;40.58;;;;;;;;;;5034543;28;20045;-58
2023/06/08 03:15:55;;;;;;;47.70;45.20;;;;;;;;;;5040800;28;20084;-58
2023/06/08 03:18:22;;;;;;;50.85;48.15;;;;;;;;;;5036201;28;20122;-62
2023/06/08 03:20:51;;;;;;;49.10;46.60;;;;;;;;;;5031447;28;20503;-58
2023/06/08 03:23:19;;;;;;;45.90;43.53;;;;;;;;;;5034541;28;20033;-58
2023/06/08 03:25:48;;;;;;;46.97;43.92;;;;;;;;;;5034737;28;20483;-62
2023/06/08 03:28:18;;;;;;;44.78;42.50;;;;;;;;;;5032318;28;20048;-58
2023/06/08 03:30:43;;;;;;;41.95;39.78;;;;;;;;;;5037009;28;20045;-58
2023/06/08 03:33:10;;;;;;;41.85;39.70;;;;;;;;;;5034643;28;20033;-63
2023/06/08 03:35:35;;;;;;;43.70;41.42;;;;;;;;;;5035679;28;20029;-63
2023/06/08 03:38:01;;;;;;;40.97;38.88;;;;;;;;;;5034620;28;20467;-65
2023/06/08 03:40:26;;;;;;;41.17;39.03;;;;;;;;;;5032180;28;20466;-63
2023/06/08 03:42:51;;;;;;;40.50;38.30;;;;;;;;;;5033190;28;20452;-58
2023/06/08 03:45:17;;;;;;;34.00;32.00;;;;;;;;;;5034630;28;20028;-64
2023/06/08 03:47:43;;;;;;;33.58;31.83;;;;;;;;;;5038567;28;20689;-63
2023/06/08 03:50:11;;;;;;;32.08;30.38;;;;;;;;;;5036574;28;20067;-58
2023/06/08 03:52:38;;;;;;;30.33;28.67;;;;;;;;;;5034345;28;20087;-63
2023/06/08 03:55:05;;;;;;;30.23;28.58;;;;;;;;;;5019661;28;20037;-64
2023/06/08 03:57:31;;;;;;;26.70;25.15;;;;;;;;;;5036929;28;20340;-63
2023/06/08 03:59:56;;;;;;;29.77;28.17;;;;;;;;;;5034581;28;20448;-64
2023/06/08 04:02:21;;;;;;;27.65;26.17;;;;;;;;;;5034354;28;20060;-58
2023/06/08 04:04:47;;;;;;;23.48;21.60;;;;;;;;;;5034687;28;20041;-58
2023/06/08 04:07:13;;;;;;;25.48;24.08;;;;;;;;;;5033929;28;20037;-58
2023/06/08 04:09:38;;;;;;;25.08;23.50;;;;;;;;;;5034566;28;20041;-58
2023/06/08 04:12:05;;;;;;;23.88;22.58;;;;;;;;;;5033824;28;20147;-58
2023/06/08 04:14:30;;;;;;;22.13;20.75;;;;;;;;;;5029691;28;20041;-62
2023/06/08 04:16:56;;;;;;;20.85;19.70;;;;;;;;;;5038005;28;20098;-58
2023/06/08 04:19:21;;;;;;;21.55;20.35;;;;;;;;;;5037734;28;20048;-64
2023/06/08 04:21:48;;;;;;;19.92;18.73;;;;;;;;;;5041876;28;20061;-63
2023/06/08 04:24:13;;;;;;;18.45;17.40;;;;;;;;;;5040827;28;20117;-63
2023/06/08 04:26:39;;;;;;;19.48;18.17;;;;;;;;;;5040744;28;20132;-63
2023/06/08 04:29:05;;;;;;;16.83;15.80;;;;;;;;;;5039407;28;20521;-58
2023/06/08 04:31:30;;;;;;;19.30;18.10;;;;;;;;;;5042212;28;20551;-62
2023/06/08 04:33:56;;;;;;;19.02;17.85;;;;;;;;;;5040255;28;20065;-62
2023/06/08 04:36:22;;;;;;;17.48;16.38;;;;;;;;;;5041786;28;20045;-58
2023/06/08 04:38:47;;;;;;;16.02;15.13;;;;;;;;;;5040634;28;20108;-63
2023/06/08 04:41:13;;;;;;;15.05;14.15;;;;;;;;;;5041737;28;20132;-57
2023/06/08 04:43:38;;;;;;;15.65;14.65;;;;;;;;;;5041826;28;20450;-63
2023/06/08 04:46:07;;;;;;;15.88;14.88;;;;;;;;;;5040510;28;20320;-57
2023/06/08 04:48:35;;;;;;;15.23;14.25;;;;;;;;;;5040086;28;20039;-62
2023/06/08 04:51:04;;;;;;;16.67;15.68;;;;;;;;;;5038873;28;20044;-63
2023/06/08 04:53:33;;;;;;;17.90;16.85;;;;;;;;;;5039339;28;20048;-58
2023/06/08 04:55:59;;;;;;;16.38;15.18;;;;;;;;;;5039395;28;20132;-58
2023/06/08 04:58:28;;;;;;;16.80;15.80;;;;;;;;;;5036979;28;20735;-62
2023/06/08 05:00:54;;;;;;;16.80;15.73;;;;;;;;;;5041744;28;20095;-58
2023/06/08 05:03:20;;;;;;;15.88;14.98;;;;;;;;;;5041482;28;20029;-63
2023/06/08 05:05:46;;;;;;;17.23;16.23;;;;;;;;;;5037022;28;20040;-63
2023/06/08 05:08:11;;;;;;;17.00;16.02;;;;;;;;;;5041359;28;20054;-63
2023/06/08 05:10:37;;;;;;;17.52;16.52;;;;;;;;;;5041095;28;20030;-59
2023/06/08 05:13:02;;;;;;;16.63;15.63;;;;;;;;;;5041539;28;20025;-63
2023/06/08 05:15:30;;;;;;;16.63;15.63;;;;;;;;;;5039742;28;20056;-63
2023/06/08 05:17:56;;;;;;;18.77;17.67;;;;;;;;;;5041842;28;20128;-63
2023/06/08 05:20:23;;;;;;;18.52;17.52;;;;;;;;;;5040115;28;20163;-63
2023/06/08 05:22:48;;;;;;;19.00;17.80;;;;;;;;;;5038894;28;20340;-63
2023/06/08 05:25:14;;;;;;;18.70;17.58;;;;;;;;;;5041587;28;20052;-58
2023/06/08 05:27:40;;;;;;;19.95;18.83;;;;;;;;;;5037679;28;20037;-58
2023/06/08 05:30:06;;;;;;;19.98;18.85;;;;;;;;;;5036302;28;20033;-59
2023/06/08 05:32:31;;;;;;;22.52;21.27;;;;;;;;;;5036545;28;20041;-63
2023/06/08 05:34:58;;;;;;;22.48;20.98;;;;;;;;;;5033631;28;20053;-63
2023/06/08 05:37:24;;;;;;;22.40;21.10;;;;;;;;;;5039873;28;20060;-58
2023/06/08 05:39:49;;;;;;;23.88;22.52;;;;;;;;;;5035614;28;20409;-59
2023/06/08 05:42:14;;;;;;;22.48;21.23;;;;;;;;;;5039178;28;20435;-63
2023/06/08 05:44:40;;;;;;;22.25;21.02;;;;;;;;;;5036506;28;20352;-63
2023/06/08 05:47:05;;;;;;;24.77;23.40;;;;;;;;;;5036637;28;20091;-63
2023/06/08 05:49:31;;;;;;;21.73;20.52;;;;;;;;;;5036145;28;20460;-63
2023/06/08 05:51:56;;;;;;;23.15;21.83;;;;;;;;;;5035811;28;20045;-63
2023/06/08 05:54:21;;;;;;;24.90;23.48;;;;;;;;;;5037187;28;20041;-63
2023/06/08 05:56:47;;;;;;;25.02;23.67;;;;;;;;;;5038679;28;20045;-62
2023/06/08 05:59:12;;;;;;;24.58;23.25;;;;;;;;;;5035116;28;20044;-63
2023/06/08 06:01:37;;;;;;;24.33;22.88;;;;;;;;;;5034721;28;20118;-63
2023/06/08 06:04:03;;;;;;;24.80;23.42;;;;;;;;;;5036227;28;20032;-62
2023/06/08 06:06:29;;;;;;;24.17;22.83;;;;;;;;;;5035424;28;20048;-64
2023/06/08 06:08:54;;;;;;;26.67;25.23;;;;;;;;;;5037134;28;20080;-63
2023/06/08 06:11:20;;;;;;;30.05;28.40;;;;;;;;;;5035482;28;20340;-58
2023/06/08 06:13:45;;;;;;;30.13;28.55;;;;;;;;;;5036097;28;20127;-59
2023/06/08 06:16:11;;;;;;;30.75;29.13;;;;;;;;;;5043488;28;20449;-62
2023/06/08 06:18:36;;;;;;;29.73;28.15;;;;;;;;;;5038060;28;20033;-63
2023/06/08 06:21:02;;;;;;;28.65;27.02;;;;;;;;;;5037251;28;20114;-58
2023/06/08 06:23:27;;;;;;;25.92;24.52;;;;;;;;;;5035597;28;20064;-58
2023/06/08 06:25:52;;;;;;;29.67;28.13;;;;;;;;;;5033758;28;20037;-58
2023/06/08 06:28:18;;;;;;;29.50;27.55;;;;;;;;;;5035906;28;20076;-63
2023/06/08 06:30:43;;;;;;;27.92;26.42;;;;;;;;;;5036406;28;20126;-59
2023/06/08 06:33:08;;;;;;;32.47;30.75;;;;;;;;;;5036692;28;20032;-58
2023/06/08 06:35:34;;;;;;;37.60;35.60;;;;;;;;;;5036272;28;20666;-64
2023/06/08 06:37:59;;;;;;;36.28;34.38;;;;;;;;;;5034838;28;20463;-63
2023/06/08 06:40:25;;;;;;;46.03;43.60;;;;;;;;;;5036127;28;20191;-63
2023/06/08 06:42:50;;;;;;;46.28;43.90;;;;;;;;;;5036809;28;20231;-63
2023/06/08 06:45:15;;;;;;;49.95;47.40;;;;;;;;;;5034622;28;20467;-57
2023/06/08 06:47:41;;;;;;;59.58;56.55;;;;;;;;;;5034577;28;20108;-58
2023/06/08 06:50:07;;;;;;;62.33;59.10;;;;;;;;;;5034451;28;20035;-58
2023/06/08 06:52:33;;;;;;;46.13;43.75;;;;;;;;;;5037668;28;20033;-58
2023/06/08 06:55:01;;;;;;;50.67;48.03;;;;;;;;;;5034668;28;20102;-58
2023/06/08 06:57:28;;;;;;;51.45;48.80;;;;;;;;;;5033820;28;20401;-58
2023/06/08 06:59:54;;;;;;;32.20;30.50;;;;;;;;;;5033737;28;20119;-59
2023/06/08 07:02:19;;;;;;;68.55;65.10;;;;;;;;;;5033796;28;20334;-63
2023/06/08 07:04:44;;;;;;;45.00;42.67;;;;;;;;;;5033518;28;20029;-58
2023/06/08 07:07:10;;;;;;;60.08;57.08;;;;;;;;;;5035589;28;20551;-58
2023/06/08 07:09:35;;;;;;;40.72;38.60;;;;;;;;;;5030946;28;20399;-58
2023/06/08 07:12:01;;;;;;;40.10;38.05;;;;;;;;;;5036848;28;20044;-64
2023/06/08 07:14:26;;;;;;;38.28;36.13;;;;;;;;;;5018716;28;20025;-62
2023/06/08 07:16:52;;;;;;;60.50;57.42;;;;;;;;;;5033998;28;20410;-57
2023/06/08 07:19:17;;;;;;;59.08;56.03;;;;;;;;;;5035028;28;20458;-57
2023/06/08 07:21:42;;;;;;;51.40;48.75;;;;;;;;;;5033793;28;20040;-57
2023/06/08 07:24:08;;;;;;;56.70;53.83;;;;;;;;;;5033441;28;20221;-57
2023/06/08 07:26:33;;;;;;;58.72;55.47;;;;;;;;;;5036479;28;20065;-62
2023/06/08 07:28:59;;;;;;;74.55;70.68;;;;;;;;;;5037387;28;20045;-62
2023/06/08 07:31:26;;;;;;;71.43;67.85;;;;;;;;;;5035565;28;20399;-57
2023/06/08 07:33:52;;;;;;;84.30;80.07;;;;;;;;;;5036539;28;20049;-57
2023/06/08 07:36:18;;;;;;;62.38;59.13;;;;;;;;;;5038140;28;20029;-61
2023/06/08 07:38:43;;;;;;;68.47;65.05;;;;;;;;;;5032974;28;20033;-62
2023/06/08 07:41:08;;;;;;;106.10;100.57;;;;;;;;;;5036504;28;20445;-62
2023/06/08 07:43:34;;;;;;;124.72;118.60;;;;;;;;;;5037934;28;20058;-62
2023/06/08 07:45:59;;;;;;;120.78;114.80;;;;;;;;;;5031432;28;20478;-57
2023/06/08 07:48:24;;;;;;;114.22;108.60;;;;;;;;;;5034816;28;20037;-57
2023/06/08 07:50:50;;;;;;;115.70;110.00;;;;;;;;;;5036511;28;20069;-62
2023/06/08 07:53:17;;;;;;;148.30;140.82;;;;;;;;;;5034121;28;20041;-62
2023/06/08 07:55:42;;;;;;;155.60;148.00;;;;;;;;;;5034528;28;20048;-62
2023/06/08 07:58:08;;;;;;;173.95;165.50;;;;;;;;;;5035637;28;20124;-61
2023/06/08 08:00:35;;;;;;;185.15;176.15;;;;;;;;;;5035565;28;20099;-64
2023/06/08 08:03:03;;;;;;;205.95;195.95;;;;;;;;;;5033986;28;20112;-57
2023/06/08 08:05:29;;;;;;;179.52;170.55;;;;;;;;;;5034866;28;20057;-57
2023/06/08 08:07:54;;;;;;;216.93;206.43;;;;;;;;;;5033490;28;20045;-57
2023/06/08 08:10:20;;;;;;;238.18;226.73;;;;;;;;;;5031633;28;20124;-61
2023/06/08 08:12:45;;;;;;;255.77;243.48;;;;;;;;;;5031764;28;20049;-62
2023/06/08 08:15:10;;;;;;;259.05;246.57;;;;;;;;;;5034140;28;20427;-62
2023/06/08 08:17:36;;;;;;;294.65;280.35;;;;;;;;;;5034516;28;20095;-57
2023/06/08 08:20:03;;;;;;;305.92;291.10;;;;;;;;;;5033943;28;20041;-57
2023/06/08 08:22:28;;;;;;;320.30;304.50;;;;;;;;;;5037247;28;20136;-57
2023/06/08 08:24:53;;;;;;;265.70;252.85;;;;;;;;;;5033029;28;20120;-57
2023/06/08 08:27:19;;;;;;;294.17;279.85;;;;;;;;;;5035231;28;20029;-57
2023/06/08 08:29:44;;;;;;;332.73;316.38;;;;;;;;;;5034273;28;20129;-57
2023/06/08 08:32:09;;;;;;;174.65;166.07;;;;;;;;;;5034315;28;20040;-63
2023/06/08 08:34:35;;;;;;;181.88;173.02;;;;;;;;;;5035219;28;20025;-62
2023/06/08 08:37:01;;;;;;;169.65;161.35;;;;;;;;;;5033341;28;20029;-57
2023/06/08 08:39:26;;;;;;;159.68;151.63;;;;;;;;;;5034688;28;20029;-64
2023/06/08 08:41:56;;;;;;;154.70;147.05;;;;;;;;;;5033531;28;20048;-62
2023/06/08 08:44:22;;;;;;;183.63;174.18;;;;;;;;;;5032865;28;20041;-62
2023/06/08 08:46:49;;;;;;;162.30;154.32;;;;;;;;;;5035341;28;20374;-62
2023/06/08 08:49:15;;;;;;;151.85;144.40;;;;;;;;;;5032754;28;20095;-63
2023/06/08 08:51:49;;;;;;;172.43;164.00;;;;;;;;;;5036113;28;20068;-62
2023/06/08 08:54:16;;;;;;;179.77;171.02;;;;;;;;;;5033825;28;20069;-57
2023/06/08 08:56:42;;;;;;;182.00;173.13;;;;;;;;;;5034007;28;20498;-63
2023/06/08 08:59:08;;;;;;;160.90;153.00;;;;;;;;;;5030589;28;20033;-63
2023/06/08 09:01:34;;;;;;;163.68;155.65;;;;;;;;;;5035205;28;20041;-61
2023/06/08 09:04:00;;;;;;;155.13;147.50;;;;;;;;;;5033634;28;20043;-63
2023/06/08 09:06:27;;;;;;;205.45;195.32;;;;;;;;;;5039314;28;20048;-58
2023/06/08 09:08:53;;;;;;;155.35;147.70;;;;;;;;;;5037777;28;20048;-62
2023/06/08 09:11:18;;;;;;;171.90;163.50;;;;;;;;;;5037290;28;20045;-63
2023/06/08 09:13:44;;;;;;;173.63;165.15;;;;;;;;;;5039047;28;20179;-62
2023/06/08 09:16:09;;;;;;;88.93;84.53;;;;;;;;;;5038248;28;20099;-63
2023/06/08 09:18:36;;;;;;;75.93;72.13;;;;;;;;;;5020430;28;20037;-58
2023/06/08 09:21:21;;;;;;;179.70;170.98;;;;;;;;;;5041009;28;20040;-61
2023/06/08 09:24:01;;;;;;;72.95;69.25;;;;;;;;;;5037607;28;20041;-65
2023/06/08 09:26:32;;;;;;;;;;;;;;;;;;5036754;28;20053;-58
2023/06/08 09:29:03;;;;;;;107.75;102.40;;;;;;;;;;5036150;28;19982;-62
2023/06/08 09:31:30;;;;;;;81.10;77.07;;;;;;;;;;5035981;28;20594;-58
2023/06/08 09:34:09;;;;;;;86.70;82.40;;;;;;;;;;5035371;28;20038;-58
2023/06/08 09:36:37;;;;;;;89.00;84.55;;;;;;;;;;5037380;28;20082;-58
2023/06/08 09:39:07;;;;;;;93.95;89.32;;;;;;;;;;5037325;28;20051;-58
2023/06/08 09:41:36;;;;;;;109.93;104.50;;;;;;;;;;5037719;28;20041;-63
2023/06/08 09:44:16;;;;;;;100.78;95.82;;;;;;;;;;5039840;28;20053;-63
2023/06/08 09:46:45;;;;;;;104.07;98.97;;;;;;;;;;5036627;28;20091;-59
2023/06/08 09:49:13;;;;;;;87.93;83.38;;;;;;;;;;5036560;28;20190;-58
2023/06/08 09:51:40;;;;;;;88.93;84.45;;;;;;;;;;5036938;28;20038;-58
2023/06/08 09:54:06;;;;;;;87.13;82.82;;;;;;;;;;5034290;28;20407;-58
2023/06/08 09:56:31;;;;;;;173.15;164.68;;;;;;;;;;5036138;28;20034;-59
2023/06/08 09:59:06;;;;;;;89.40;84.95;;;;;;;;;;5033087;28;20159;-58
2023/06/08 10:01:38;;;;;;;169.30;161.02;;;;;;;;;;5034477;28;20068;-58
2023/06/08 10:04:29;;;;;;;159.65;151.70;;;;;;;;;;5044620;28;20030;-58
2023/06/08 10:06:56;;;;;;;103.18;98.07;;;;;;;;;;5036107;28;20067;-59
2023/06/08 10:09:27;;;;;;;82.65;78.45;;;;;;;;;;5035819;28;20037;-59
2023/06/08 10:11:55;;;;;;;95.80;91.03;;;;;;;;;;5036748;28;20033;-59
2023/06/08 10:14:23;;;;;;;123.78;117.63;;;;;;;;;;5023496;28;20040;-58
2023/06/08 10:16:48;;;;;;;79.72;75.78;;;;;;;;;;5036627;28;20406;-59
2023/06/08 10:19:14;;;;;;;116.47;110.70;;;;;;;;;;5033968;28;20348;-59
2023/06/08 10:21:39;;;;;;;97.55;92.68;;;;;;;;;;5035089;28;20037;-58
2023/06/08 10:24:05;;;;;;;73.75;70.13;;;;;;;;;;5035437;28;20040;-58
2023/06/08 10:26:31;;;;;;;114.50;108.82;;;;;;;;;;5035511;28;20526;-58
2023/06/08 10:29:08;;;;;;;168.15;159.90;;;;;;;;;;5034465;28;20037;-58
2023/06/08 10:31:37;;;;;;;114.72;109.03;;;;;;;;;;5036152;28;20375;-58
2023/06/08 10:34:17;;;;;;;91.65;87.13;;;;;;;;;;5040552;28;20036;-58
2023/06/08 10:36:43;;;;;;;88.53;84.13;;;;;;;;;;5035583;28;20033;-58
2023/06/08 10:39:12;;;;;;;114.78;108.97;;;;;;;;;;5035674;28;20588;-58
2023/06/08 10:41:38;;;;;;;88.38;83.97;;;;;;;;;;5042388;28;20036;-58
2023/06/08 10:44:04;;;;;;;109.55;104.15;;;;;;;;;;5032695;28;20411;-57
2023/06/08 10:46:42;;;;;;;122.60;116.53;;;;;;;;;;5035316;28;20094;-57
2023/06/08 10:49:08;;;;;;;117.22;111.28;;;;;;;;;;5035216;28;20036;-63
2023/06/08 10:51:43;;;;;;;118.28;112.38;;;;;;;;;;5038094;28;20047;-57
2023/06/08 10:54:19;;;;;;;142.45;135.35;;;;;;;;;;5034845;28;20041;-58
2023/06/08 10:56:47;;;;;;;148.35;140.95;;;;;;;;;;5036559;28;20366;-57
2023/06/08 10:59:12;;;;;;;164.52;156.38;;;;;;;;;;5032906;28;20113;-62
2023/06/08 11:01:38;;;;;;;132.23;125.40;;;;;;;;;;5033239;28;20140;-57
2023/06/08 11:04:05;;;;;;;119.75;113.82;;;;;;;;;;5036007;28;20503;-57
2023/06/08 11:06:33;;;;;;;148.73;141.35;;;;;;;;;;5037935;28;20069;-57
2023/06/08 11:08:59;;;;;;;125.55;119.40;;;;;;;;;;5035757;28;20037;-57
2023/06/08 11:11:25;;;;;;;117.22;111.43;;;;;;;;;;5034115;28;20025;-57
2023/06/08 11:13:52;;;;;;;127.53;121.22;;;;;;;;;;5034428;28;20044;-62
2023/06/08 11:16:20;;;;;;;143.38;136.32;;;;;;;;;;5034613;28;20187;-62
2023/06/08 11:18:46;;;;;;;132.45;125.88;;;;;;;;;;5032932;28;20128;-57
2023/06/08 11:21:11;;;;;;;123.30;117.15;;;;;;;;;;5035476;28;20179;-63
2023/06/08 11:23:37;;;;;;;143.32;136.23;;;;;;;;;;5035103;28;20030;-62
2023/06/08 11:26:02;;;;;;;140.85;133.85;;;;;;;;;;5033119;28;20183;-62
2023/06/08 11:28:28;;;;;;;120.40;114.43;;;;;;;;;;5031797;28;20455;-62
2023/06/08 11:30:53;;;;;;;151.32;143.75;;;;;;;;;;5035175;28;20182;-57
2023/06/08 11:33:20;;;;;;;159.23;151.38;;;;;;;;;;5035620;28;20158;-62
2023/06/08 11:35:52;;;;;;;132.73;126.15;;;;;;;;;;5034399;28;20033;-57
2023/06/08 11:38:17;;;;;;;141.20;134.20;;;;;;;;;;5032692;28;20032;-62
2023/06/08 11:40:43;;;;;;;135.50;128.70;;;;;;;;;;5034923;28;20370;-61
2023/06/08 11:43:12;;;;;;;132.55;126.03;;;;;;;;;;5037790;28;20045;-56
2023/06/08 11:45:39;;;;;;;134.65;128.00;;;;;;;;;;5034413;28;20043;-57
2023/06/08 11:48:06;;;;;;;140.82;133.88;;;;;;;;;;5036546;28;20043;-57
2023/06/08 11:50:31;;;;;;;112.68;107.13;;;;;;;;;;5034650;28;20044;-57
2023/06/08 11:52:57;;;;;;;108.65;103.25;;;;;;;;;;5035187;28;20446;-57
2023/06/08 11:55:24;;;;;;;120.50;114.50;;;;;;;;;;5034369;28;20071;-57
2023/06/08 11:57:54;;;;;;;108.72;103.05;;;;;;;;;;5033010;28;20454;-57
2023/06/08 12:00:22;;;;;;;39.55;37.45;;;;;;;;;;5034007;28;20037;-57
2023/06/08 12:02:49;;;;;;;108.85;103.45;;;;;;;;;;5033900;28;20336;-57
2023/06/08 12:05:31;;;;;;;25.23;23.75;;;;;;;;;;5036953;28;20289;-57
2023/06/08 12:07:58;;;;;;;37.42;35.42;;;;;;;;;;5031767;28;20333;-57
2023/06/08 12:10:31;;;;;;;44.67;42.40;;;;;;;;;;5035605;28;20029;-63
2023/06/08 12:12:56;;;;;;;30.52;28.92;;;;;;;;;;5034227;28;20045;-63
2023/06/08 12:15:21;;;;;;;51.00;48.40;;;;;;;;;;5036543;28;20029;-62
2023/06/08 12:17:47;;;;;;;93.93;89.22;;;;;;;;;;5035074;28;20110;-61
2023/06/08 12:20:17;;;;;;;121.63;115.63;;;;;;;;;;5034681;28;20033;-55
2023/06/08 12:22:42;;;;;;;151.35;143.85;;;;;;;;;;5033704;28;20159;-62
2023/06/08 12:25:08;;;;;;;153.68;146.07;;;;;;;;;;5034419;28;20349;-61
2023/06/08 12:27:37;;;;;;;128.98;122.63;;;;;;;;;;5032050;28;20041;-61
2023/06/08 12:30:08;;;;;;;119.60;113.70;;;;;;;;;;5032341;28;20112;-61
2023/06/08 12:32:33;;;;;;;122.53;116.47;;;;;;;;;;5033010;28;20045;-61
2023/06/08 12:34:59;;;;;;;131.35;124.70;;;;;;;;;;5033349;28;20030;-63
2023/06/08 12:37:25;;;;;;;117.75;111.88;;;;;;;;;;5035648;28;20042;-61
2023/06/08 12:39:52;;;;;;;93.85;89.18;;;;;;;;;;5039069;28;20116;-56
2023/06/08 12:42:18;;;;;;;105.63;100.38;;;;;;;;;;5037652;28;20102;-56
2023/06/08 12:44:44;;;;;;;60.15;57.10;;;;;;;;;;5037011;28;20036;-53
2023/06/08 12:47:09;;;;;;;59.72;56.70;;;;;;;;;;5038505;28;20037;-55
2023/06/08 12:49:34;;;;;;;90.53;86.05;;;;;;;;;;5038681;28;20095;-61
2023/06/08 12:52:00;;;;;;;102.18;97.05;;;;;;;;;;5037025;28;20111;-55
2023/06/08 12:54:25;;;;;;;112.22;106.72;;;;;;;;;;5037981;28;20045;-55
2023/06/08 12:56:50;;;;;;;122.88;116.80;;;;;;;;;;5042332;28;20041;-56
2023/06/08 12:59:16;;;;;;;120.90;114.90;;;;;;;;;;5036840;28;20082;-60
2023/06/08 13:01:41;;;;;;;145.48;138.20;;;;;;;;;;5036144;28;20103;-61
2023/06/08 13:04:06;;;;;;;111.10;105.60;;;;;;;;;;5037230;28;20230;-61
2023/06/08 13:06:32;;;;;;;121.25;115.28;;;;;;;;;;5034891;28;20462;-61
2023/06/08 13:08:57;;;;;;;108.82;103.45;;;;;;;;;;5035472;28;20033;-62
2023/06/08 13:11:22;;;;;;;104.43;99.22;;;;;;;;;;5037695;28;20029;-54
2023/06/08 13:13:48;;;;;;;114.72;109.03;;;;;;;;;;5041302;28;20032;-61
2023/06/08 13:16:13;;;;;;;132.82;126.20;;;;;;;;;;5037381;28;20111;-61
2023/06/08 13:18:41;;;;;;;129.32;122.85;;;;;;;;;;5033991;28;20340;-61
2023/06/08 13:21:06;;;;;;;110.93;105.43;;;;;;;;;;5040641;28;20092;-56
2023/06/08 13:23:31;;;;;;;125.55;119.30;;;;;;;;;;5037440;28;20477;-55
2023/06/08 13:25:57;;;;;;;153.80;146.15;;;;;;;;;;5036611;28;20033;-54
2023/06/08 13:28:22;;;;;;;98.15;93.25;;;;;;;;;;5038216;28;20192;-56
2023/06/08 13:30:48;;;;;;;138.68;131.80;;;;;;;;;;5039838;28;20037;-61
2023/06/08 13:33:13;;;;;;;377.52;358.27;;;;;;;;;;5036332;28;20045;-58
2023/06/08 13:35:41;;;;;;;307.30;292.13;;;;;;;;;;5045834;28;20063;-61
2023/06/08 13:38:06;;;;;;;446.38;422.63;;;;;;;;;;5034096;28;20120;-69
2023/06/08 13:40:32;;;;;;;525.55;495.67;;;;;;;;;;5034775;28;20135;-69
2023/06/08 13:43:01;;;;;;;457.75;433.27;;;;;;;;;;5035193;28;20094;-64
2023/06/08 13:45:27;;;;;;;429.98;407.52;;;;;;;;;;5024751;28;20120;-67
2023/06/08 13:47:54;;;;;;;469.17;443.55;;;;;;;;;;5044222;28;20044;-67
2023/06/08 13:50:20;;;;;;;469.52;444.23;;;;;;;;;;5036533;28;20041;-63
2023/06/08 13:52:46;;;;;;;525.45;495.50;;;;;;;;;;5037966;28;20029;-66
2023/06/08 13:55:11;;;;;;;517.15;488.20;;;;;;;;;;5035464;28;20033;-62
2023/06/08 13:57:36;;;;;;;432.23;409.38;;;;;;;;;;5038486;28;20033;-62
2023/06/08 14:00:04;;;;;;;403.85;383.08;;;;;;;;;;5035179;28;20053;-62
2023/06/08 14:02:30;;;;;;;381.70;362.35;;;;;;;;;;5038686;28;20387;-61
2023/06/08 14:04:56;;;;;;;424.83;402.55;;;;;;;;;;5035471;28;20076;-62
2023/06/08 14:07:21;;;;;;;347.77;330.38;;;;;;;;;;5032190;28;20487;-61